Time;durP1;ratioP1;P1;durP2;ratioP2;P2;SDS_P1;SDS_P2;PMS_P1;PMS_P2;Temp;Humidity;BMP_temperature;BMP_pressure;BME280_temperature;BME280_humidity;BME280_pressure;Samples;Min_cycle;Max_cycle;Signal;HPM_P1;HPM_P2
2023/09/28 00:00:38;;;;;;;11.38;7.05;;;18.80;99.90;;;;;;5051576;28;20056;-69
2023/09/28 00:03:05;;;;;;;13.07;7.85;;;18.80;99.90;;;;;;5050640;28;20041;-69
2023/09/28 00:05:32;;;;;;;11.45;7.00;;;18.80;99.90;;;;;;5054129;28;20365;-69
2023/09/28 00:08:00;;;;;;;9.90;6.85;;;18.80;99.90;;;;;;5056609;28;20581;-69
2023/09/28 00:10:26;;;;;;;10.00;7.10;;;18.80;99.90;;;;;;5053167;28;20041;-68
2023/09/28 00:12:53;;;;;;;13.32;7.00;;;18.80;99.90;;;;;;5056000;28;20056;-69
2023/09/28 00:15:21;;;;;;;12.10;7.40;;;18.80;99.90;;;;;;5044114;28;20069;-69
2023/09/28 00:17:47;;;;;;;8.95;6.70;;;18.80;99.90;;;;;;5055791;28;20500;-69
2023/09/28 00:20:18;;;;;;;11.65;7.07;;;18.80;99.90;;;;;;5063307;28;20045;-69
2023/09/28 00:22:49;;;;;;;9.48;6.28;;;18.80;99.90;;;;;;5056066;28;20151;-69
2023/09/28 00:25:19;;;;;;;8.98;5.78;;;18.80;99.90;;;;;;5055858;28;20047;-69
2023/09/28 00:27:58;;;;;;;10.95;7.05;;;18.70;99.90;;;;;;5050463;28;20040;-69
2023/09/28 00:30:26;;;;;;;12.70;6.28;;;18.80;99.90;;;;;;5054832;28;20052;-68
2023/09/28 00:33:01;;;;;;;9.52;6.30;;;18.70;99.90;;;;;;5055623;28;20045;-68
2023/09/28 00:35:27;;;;;;;9.43;5.72;;;18.80;99.90;;;;;;5057918;28;20033;-69
2023/09/28 00:37:53;;;;;;;;;;;18.70;99.90;;;;;;5060764;28;20047;-68
2023/09/28 00:40:31;;;;;;;8.00;5.13;;;18.80;99.90;;;;;;5058864;28;19916;-69
2023/09/28 00:42:58;;;;;;;8.63;5.28;;;18.70;99.90;;;;;;5059955;28;20047;-68
2023/09/28 00:45:27;;;;;;;8.48;5.10;;;18.70;99.90;;;;;;5054793;28;20055;-68
2023/09/28 00:48:17;;;;;;;7.68;4.85;;;18.80;99.90;;;;;;5056646;28;20045;-68
2023/09/28 00:50:43;;;;;;;6.93;4.93;;;18.80;99.90;;;;;;5052835;28;20063;-69
2023/09/28 00:53:12;;;;;;;8.32;4.50;;;18.80;99.90;;;;;;5058778;28;20511;-68
2023/09/28 00:55:39;;;;;;;6.95;4.80;;;18.80;99.90;;;;;;5050943;28;20068;-68
2023/09/28 00:58:09;;;;;;;8.32;4.45;;;18.80;99.90;;;;;;5045188;28;20033;-69
2023/09/28 01:00:38;;;;;;;7.28;4.25;;;18.90;99.90;;;;;;5056976;28;20064;-69
2023/09/28 01:03:08;;;;;;;8.10;4.32;;;18.90;99.90;;;;;;5045950;28;20072;-69
2023/09/28 01:05:40;;;;;;;8.70;4.68;;;18.90;99.90;;;;;;5062287;28;20093;-69
2023/09/28 01:08:06;;;;;;;7.82;4.75;;;18.90;99.90;;;;;;5056316;28;20119;-67
2023/09/28 01:10:35;;;;;;;7.03;4.30;;;18.90;99.90;;;;;;5046722;28;20055;-67
2023/09/28 01:13:11;;;;;;;6.13;4.40;;;18.90;99.90;;;;;;5053597;28;20690;-68
2023/09/28 01:15:43;;;;;;;6.05;4.18;;;18.90;99.90;;;;;;5056582;28;20036;-67
2023/09/28 01:18:09;;;;;;;6.22;4.15;;;18.90;99.90;;;;;;5057140;28;20045;-67
2023/09/28 01:20:37;;;;;;;8.00;4.07;;;18.90;99.90;;;;;;5057779;28;20205;-68
2023/09/28 01:23:06;;;;;;;8.73;4.38;;;18.90;99.90;;;;;;5040971;28;20045;-68
2023/09/28 01:25:34;;;;;;;6.25;4.07;;;18.90;99.90;;;;;;5054538;28;20033;-67
2023/09/28 01:28:00;;;;;;;7.35;4.05;;;18.90;99.90;;;;;;5062534;28;20048;-68
2023/09/28 01:30:28;;;;;;;6.00;3.67;;;18.90;99.90;;;;;;5056719;28;20580;-68
2023/09/28 01:32:54;;;;;;;6.53;3.80;;;18.80;99.90;;;;;;5059315;28;20464;-68
2023/09/28 01:35:20;;;;;;;5.10;3.80;;;18.80;99.90;;;;;;5056195;28;20056;-67
2023/09/28 01:37:52;;;;;;;;;;;18.80;99.90;;;;;;5049857;28;20419;-67
2023/09/28 01:40:18;;;;;;;8.65;4.00;;;18.80;99.90;;;;;;5053409;28;19917;-67
2023/09/28 01:42:44;;;;;;;;;;;18.80;99.90;;;;;;5056928;28;20401;-67
2023/09/28 01:45:11;;;;;;;6.25;3.60;;;18.80;99.90;;;;;;5036438;28;19962;-68
2023/09/28 01:47:37;;;;;;;7.68;4.20;;;18.80;99.90;;;;;;5053992;28;20086;-67
2023/09/28 01:50:06;;;;;;;6.75;4.35;;;18.70;99.90;;;;;;5057350;28;20441;-67
2023/09/28 01:52:32;;;;;;;7.38;4.25;;;18.70;99.90;;;;;;5052002;28;20501;-68
2023/09/28 01:54:59;;;;;;;6.90;4.15;;;18.70;99.90;;;;;;5058422;28;20094;-67
2023/09/28 01:57:24;;;;;;;7.25;4.07;;;18.70;99.90;;;;;;5051131;28;20101;-67
2023/09/28 01:59:50;;;;;;;6.03;4.13;;;18.70;99.90;;;;;;5059260;28;20052;-68
2023/09/28 02:02:16;;;;;;;6.45;4.20;;;18.70;99.90;;;;;;5053049;28;20056;-68
2023/09/28 02:04:42;;;;;;;;;;;18.60;99.90;;;;;;5058497;28;20051;-68
2023/09/28 02:07:13;;;;;;;5.63;3.55;;;18.60;99.90;;;;;;5052557;28;19969;-68
2023/09/28 02:09:39;;;;;;;8.32;4.47;;;18.60;99.90;;;;;;5057008;28;20490;-68
2023/09/28 02:12:06;;;;;;;6.75;4.28;;;18.60;99.90;;;;;;5058440;28;20049;-68
2023/09/28 02:14:32;;;;;;;8.20;4.40;;;18.60;99.90;;;;;;5051847;28;20075;-67
2023/09/28 02:16:58;;;;;;;6.80;4.22;;;18.60;99.90;;;;;;5054818;28;20495;-68
2023/09/28 02:19:24;;;;;;;6.90;4.28;;;18.50;99.90;;;;;;5056079;28;20032;-67
2023/09/28 02:21:51;;;;;;;7.53;4.40;;;18.50;99.90;;;;;;5051645;28;20047;-68
2023/09/28 02:24:17;;;;;;;6.97;4.47;;;18.50;99.90;;;;;;5058861;28;20052;-68
2023/09/28 02:26:47;;;;;;;6.72;3.70;;;18.40;99.90;;;;;;5046189;28;20856;-68
2023/09/28 02:29:13;;;;;;;5.05;3.90;;;18.40;99.90;;;;;;5054874;28;20045;-68
2023/09/28 02:31:42;;;;;;;7.75;4.15;;;18.40;99.90;;;;;;5050045;28;20036;-68
2023/09/28 02:34:10;;;;;;;8.82;4.43;;;18.40;99.90;;;;;;5053626;28;20056;-68
2023/09/28 02:36:40;;;;;;;10.50;4.60;;;18.30;99.90;;;;;;5052703;28;20472;-68
2023/09/28 02:39:07;;;;;;;5.72;4.03;;;18.30;99.90;;;;;;5045998;28;20067;-68
2023/09/28 02:41:33;;;;;;;7.10;4.07;;;18.30;99.90;;;;;;5031261;28;20052;-68
2023/09/28 02:43:58;;;;;;;6.18;4.00;;;18.30;99.90;;;;;;5038276;28;20048;-68
2023/09/28 02:46:31;;;;;;;8.93;4.28;;;18.30;99.90;;;;;;5049819;28;20049;-68
2023/09/28 02:48:57;;;;;;;7.22;4.28;;;18.20;99.90;;;;;;5053393;28;20080;-68
2023/09/28 02:51:23;;;;;;;8.93;4.40;;;18.20;99.90;;;;;;5054074;28;20082;-68
2023/09/28 02:53:48;;;;;;;6.78;4.18;;;18.20;99.90;;;;;;5055729;28;20064;-68
2023/09/28 02:56:14;;;;;;;5.63;4.00;;;18.10;99.90;;;;;;5055728;28;20037;-68
2023/09/28 02:58:40;;;;;;;7.10;4.22;;;18.10;99.90;;;;;;5046396;28;20060;-67
2023/09/28 03:01:08;;;;;;;;;;;18.10;99.90;;;;;;5055410;28;20048;-68
2023/09/28 03:03:36;;;;;;;8.48;4.30;;;18.00;99.90;;;;;;5050853;28;19931;-68
2023/09/28 03:06:04;;;;;;;7.55;4.90;;;18.00;99.90;;;;;;5052977;28;20077;-68
2023/09/28 03:08:30;;;;;;;9.05;4.45;;;17.90;99.90;;;;;;5056207;28;20048;-68
2023/09/28 03:10:57;;;;;;;6.97;4.10;;;17.90;99.90;;;;;;5054451;28;20155;-69
2023/09/28 03:13:22;;;;;;;;;;;17.90;99.90;;;;;;5056274;28;20037;-68
2023/09/28 03:15:51;;;;;;;7.07;4.20;;;17.80;99.90;;;;;;5047851;28;19928;-68
2023/09/28 03:18:16;;;;;;;6.63;4.07;;;17.80;99.90;;;;;;5049252;28;20041;-67
2023/09/28 03:20:44;;;;;;;6.18;4.20;;;17.80;99.90;;;;;;5059598;28;20036;-68
2023/09/28 03:23:13;;;;;;;6.82;4.15;;;17.80;99.90;;;;;;5049662;28;20055;-67
2023/09/28 03:25:39;;;;;;;6.93;4.47;;;17.80;99.90;;;;;;5052950;28;20611;-68
2023/09/28 03:28:07;;;;;;;7.50;4.60;;;17.70;99.90;;;;;;5046624;28;20033;-68
2023/09/28 03:30:33;;;;;;;8.05;4.22;;;17.70;99.90;;;;;;5053609;28;20043;-68
2023/09/28 03:32:59;;;;;;;6.88;4.55;;;17.70;99.90;;;;;;5043802;28;20098;-67
2023/09/28 03:35:26;;;;;;;7.03;4.30;;;17.70;99.90;;;;;;5054392;28;20032;-68
2023/09/28 03:37:56;;;;;;;5.88;4.18;;;17.70;99.90;;;;;;5031731;28;20067;-68
2023/09/28 03:40:22;;;;;;;8.18;4.43;;;17.70;99.90;;;;;;5050910;28;20408;-68
2023/09/28 03:42:49;;;;;;;5.95;4.03;;;17.60;99.90;;;;;;5045552;28;20131;-68
2023/09/28 03:45:25;;;;;;;7.18;3.92;;;17.60;99.90;;;;;;5049051;28;20131;-68
2023/09/28 03:47:52;;;;;;;8.47;4.13;;;17.60;99.90;;;;;;5048794;28;20040;-67
2023/09/28 03:50:20;;;;;;;8.30;4.25;;;17.60;99.90;;;;;;5053623;28;20044;-68
2023/09/28 03:52:45;;;;;;;7.15;4.15;;;17.60;99.90;;;;;;5048124;28;20123;-68
2023/09/28 03:55:14;;;;;;;8.30;4.28;;;17.60;99.90;;;;;;5053575;28;20165;-67
2023/09/28 03:57:44;;;;;;;9.63;4.35;;;17.60;99.90;;;;;;5054937;28;20133;-68
2023/09/28 04:00:14;;;;;;;7.00;4.13;;;17.60;99.90;;;;;;5054261;28;20204;-67
2023/09/28 04:02:45;;;;;;;9.13;4.05;;;17.60;99.90;;;;;;5057614;28;20074;-68
2023/09/28 04:05:14;;;;;;;6.43;3.95;;;17.60;99.90;;;;;;5058497;28;20053;-68
2023/09/28 04:07:43;;;;;;;7.93;4.65;;;17.60;99.90;;;;;;5058413;28;20074;-67
2023/09/28 04:10:10;;;;;;;7.38;4.13;;;17.50;99.90;;;;;;5058998;28;20052;-68
2023/09/28 04:12:36;;;;;;;6.13;4.07;;;17.50;99.90;;;;;;5059350;28;20060;-68
2023/09/28 04:15:02;;;;;;;6.95;4.40;;;17.50;99.90;;;;;;5050732;28;20524;-68
2023/09/28 04:17:28;;;;;;;;;;;17.50;99.90;;;;;;5056284;28;20052;-67
2023/09/28 04:19:54;;;;;;;7.60;4.10;;;17.50;99.90;;;;;;5062976;28;20318;-68
2023/09/28 04:22:19;;;;;;;6.82;4.47;;;17.50;99.90;;;;;;5056725;28;20037;-68
2023/09/28 04:24:45;;;;;;;8.82;4.25;;;17.40;99.90;;;;;;5058367;28;20141;-68
2023/09/28 04:27:11;;;;;;;12.18;4.80;;;17.50;99.90;;;;;;5057602;28;20076;-68
2023/09/28 04:29:37;;;;;;;8.82;4.43;;;17.40;99.90;;;;;;5057690;28;20433;-68
2023/09/28 04:32:03;;;;;;;6.75;4.18;;;17.40;99.90;;;;;;5057756;28;20044;-68
2023/09/28 04:34:31;;;;;;;8.40;4.60;;;17.40;99.90;;;;;;5052530;28;20956;-68
2023/09/28 04:36:57;;;;;;;6.57;4.43;;;17.30;99.90;;;;;;5057977;28;20102;-68
2023/09/28 04:39:24;;;;;;;;;;;17.30;99.90;;;;;;5056294;28;20036;-68
2023/09/28 04:41:52;;;;;;;9.68;4.28;;;17.30;99.90;;;;;;5058783;28;19920;-68
2023/09/28 04:44:18;;;;;;;7.50;4.05;;;17.30;99.90;;;;;;5052036;28;20316;-68
2023/09/28 04:46:46;;;;;;;6.18;3.50;;;17.30;99.90;;;;;;5058424;28;20511;-68
2023/09/28 04:49:14;;;;;;;6.90;3.80;;;17.30;99.90;;;;;;5062742;28;20044;-68
2023/09/28 04:51:40;;;;;;;7.22;4.28;;;17.30;99.90;;;;;;5055574;28;20036;-67
2023/09/28 04:54:06;;;;;;;7.95;4.97;;;17.30;99.90;;;;;;5051253;28;20041;-68
2023/09/28 04:56:32;;;;;;;6.30;3.63;;;17.30;99.90;;;;;;5059461;28;20040;-68
2023/09/28 04:58:59;;;;;;;9.43;4.70;;;17.30;99.90;;;;;;5053344;28;20564;-68
2023/09/28 05:01:27;;;;;;;7.38;3.88;;;17.30;99.90;;;;;;5053987;28;20131;-67
2023/09/28 05:04:02;;;;;;;7.47;3.30;;;17.20;99.90;;;;;;5052651;28;20033;-68
2023/09/28 05:06:27;;;;;;;5.95;3.45;;;17.10;99.90;;;;;;5059027;28;20067;-68
2023/09/28 05:08:53;;;;;;;9.95;2.97;;;17.10;99.90;;;;;;5059453;28;20048;-68
2023/09/28 05:11:19;;;;;;;8.55;3.25;;;17.10;99.90;;;;;;5052693;28;20416;-68
2023/09/28 05:13:44;;;;;;;7.65;2.70;;;17.10;99.90;;;;;;5056659;28;20623;-68
2023/09/28 05:16:10;;;;;;;6.15;2.22;;;17.10;99.90;;;;;;5052570;28;20089;-68
2023/09/28 05:18:37;;;;;;;7.78;2.83;;;17.10;99.90;;;;;;5057482;28;20405;-68
2023/09/28 05:21:03;;;;;;;7.35;2.65;;;17.00;99.90;;;;;;5037636;28;20047;-68
2023/09/28 05:23:31;;;;;;;8.23;2.33;;;17.10;99.90;;;;;;5052503;28;20044;-67
2023/09/28 05:25:56;;;;;;;9.02;1.80;;;17.00;99.90;;;;;;5057005;28;20045;-68
2023/09/28 05:28:22;;;;;;;6.18;1.60;;;17.10;99.90;;;;;;5034605;28;20036;-68
2023/09/28 05:30:48;;;;;;;8.70;2.20;;;17.10;99.90;;;;;;5053672;28;20544;-68
2023/09/28 05:33:14;;;;;;;16.20;2.38;;;17.00;99.90;;;;;;5034755;28;20045;-68
2023/09/28 05:35:40;;;;;;;14.45;2.90;;;17.10;99.90;;;;;;5058908;28;20052;-68
2023/09/28 05:38:05;;;;;;;10.52;2.10;;;17.00;99.90;;;;;;5052003;28;20036;-68
2023/09/28 05:40:34;;;;;;;7.72;2.40;;;17.10;99.90;;;;;;5038559;28;20052;-72
2023/09/28 05:43:00;;;;;;;13.00;1.98;;;17.10;99.90;;;;;;5035250;28;20135;-71
2023/09/28 05:45:26;;;;;;;20.83;3.83;;;17.10;99.90;;;;;;5050635;28;20207;-72
2023/09/28 05:47:51;;;;;;;12.88;2.40;;;17.10;99.90;;;;;;5056935;28;26406;-72
2023/09/28 05:50:18;;;;;;;12.55;2.00;;;17.10;99.90;;;;;;5055126;28;20576;-69
2023/09/28 05:52:45;;;;;;;12.05;2.40;;;17.00;99.90;;;;;;5060104;28;20048;-77
2023/09/28 05:55:11;;;;;;;15.40;2.55;;;17.00;99.90;;;;;;5054867;28;20052;-69
2023/09/28 05:57:39;;;;;;;15.00;2.75;;;17.00;99.90;;;;;;5038935;28;20449;-69
2023/09/28 06:00:09;;;;;;;10.13;2.70;;;17.00;99.90;;;;;;5051827;28;20119;-70
2023/09/28 06:02:35;;;;;;;15.65;3.08;;;17.00;99.90;;;;;;5054555;28;20120;-69
2023/09/28 06:05:01;;;;;;;11.23;2.28;;;16.90;99.90;;;;;;5054830;28;20098;-69
2023/09/28 06:07:26;;;;;;;14.80;2.72;;;16.90;99.90;;;;;;5049146;28;20040;-69
2023/09/28 06:09:52;;;;;;;10.60;2.80;;;16.90;99.90;;;;;;5059693;28;20048;-70
2023/09/28 06:12:18;;;;;;;16.83;4.43;;;16.90;99.90;;;;;;5053900;28;20485;-69
2023/09/28 06:14:46;;;;;;;19.63;2.50;;;16.90;99.90;;;;;;5059982;28;20492;-69
2023/09/28 06:17:14;;;;;;;15.77;2.20;;;16.80;99.90;;;;;;5050281;28;20492;-70
2023/09/28 06:19:40;;;;;;;16.58;2.83;;;16.80;99.90;;;;;;5055797;28;20041;-70
2023/09/28 06:22:09;;;;;;;;;;;16.80;99.90;;;;;;5054293;28;20488;-69
2023/09/28 06:24:39;;;;;;;14.00;2.47;;;16.80;99.90;;;;;;5047130;28;20003;-70
2023/09/28 06:27:05;;;;;;;13.85;2.28;;;16.70;99.90;;;;;;5037858;28;20048;-69
2023/09/28 06:29:34;;;;;;;17.23;2.42;;;16.80;99.90;;;;;;5037001;28;20119;-75
2023/09/28 06:32:03;;;;;;;17.13;4.22;;;16.80;99.90;;;;;;5048268;28;20054;-69
2023/09/28 06:34:31;;;;;;;17.55;3.22;;;16.80;99.90;;;;;;5057904;28;20041;-70
2023/09/28 06:37:00;;;;;;;16.23;3.10;;;16.80;99.90;;;;;;5057928;28;20131;-69
2023/09/28 06:39:28;;;;;;;17.40;3.00;;;16.80;99.90;;;;;;5051358;28;20349;-69
2023/09/28 06:41:54;;;;;;;13.93;3.22;;;16.80;99.90;;;;;;5048062;28;20041;-69
2023/09/28 06:44:20;;;;;;;17.70;3.45;;;16.80;99.90;;;;;;5056607;28;20032;-69
2023/09/28 06:46:46;;;;;;;19.55;2.83;;;16.80;99.90;;;;;;5051809;28;20049;-69
2023/09/28 06:49:12;;;;;;;11.82;1.95;;;16.90;99.90;;;;;;5056396;28;20091;-69
2023/09/28 06:51:37;;;;;;;;;;;17.00;99.90;;;;;;5052431;28;20041;-68
2023/09/28 06:54:03;;;;;;;14.88;2.78;;;17.00;99.90;;;;;;5056499;28;20273;-69
2023/09/28 06:56:30;;;;;;;15.07;2.30;;;17.00;99.90;;;;;;5050859;28;20687;-76
2023/09/28 06:58:56;;;;;;;14.63;2.75;;;17.10;99.90;;;;;;5059615;28;20048;-70
2023/09/28 07:01:22;;;;;;;13.05;2.10;;;17.10;99.90;;;;;;5054094;28;20040;-70
2023/09/28 07:03:52;;;;;;;17.95;2.58;;;17.20;99.90;;;;;;5056629;28;20060;-71
2023/09/28 07:06:21;;;;;;;19.55;3.25;;;17.20;99.90;;;;;;5059247;28;20374;-73
2023/09/28 07:08:47;;;;;;;15.88;2.42;;;17.20;99.90;;;;;;5062254;28;20499;-72
2023/09/28 07:11:13;;;;;;;16.25;2.85;;;17.30;99.90;;;;;;5058552;28;20508;-71
2023/09/28 07:13:38;;;;;;;20.60;3.15;;;17.30;99.90;;;;;;5050829;28;20080;-72
2023/09/28 07:16:07;;;;;;;23.10;3.00;;;17.30;99.90;;;;;;5054139;28;20036;-72
2023/09/28 07:18:33;;;;;;;13.57;2.33;;;17.40;99.90;;;;;;5033980;28;20041;-72
2023/09/28 07:20:59;;;;;;;19.67;2.92;;;17.40;99.90;;;;;;5049678;28;20068;-72
2023/09/28 07:23:24;;;;;;;16.25;2.72;;;17.40;99.90;;;;;;5053104;28;20138;-69
2023/09/28 07:25:51;;;;;;;20.92;2.45;;;17.50;99.90;;;;;;5055597;28;20045;-74
2023/09/28 07:28:16;;;;;;;;;;;17.50;99.90;;;;;;5052665;28;20052;-70
2023/09/28 07:30:42;;;;;;;19.90;3.00;;;17.60;99.90;;;;;;5047570;28;20030;-73
2023/09/28 07:33:08;;;;;;;13.15;2.40;;;17.60;99.90;;;;;;5061330;28;20472;-72
2023/09/28 07:35:33;;;;;;;11.82;2.42;;;17.60;99.90;;;;;;5060506;28;20477;-73
2023/09/28 07:37:59;;;;;;;16.33;2.88;;;17.70;99.90;;;;;;5053769;28;20127;-76
2023/09/28 07:40:26;;;;;;;20.45;2.53;;;17.70;99.90;;;;;;5048312;28;20045;-72
2023/09/28 07:42:52;;;;;;;10.93;2.72;;;17.80;99.90;;;;;;5038110;28;20398;-70
2023/09/28 07:45:20;;;;;;;19.05;3.17;;;17.80;99.90;;;;;;5036766;28;20047;-76
2023/09/28 07:47:46;;;;;;;14.90;2.08;;;17.80;99.90;;;;;;5036493;28;20109;-77
2023/09/28 07:50:14;;;;;;;14.02;2.72;;;17.90;99.90;;;;;;5055765;28;20048;-75
2023/09/28 07:52:40;;;;;;;17.70;2.35;;;17.90;99.90;;;;;;5050266;28;20513;-75
2023/09/28 07:55:07;;;;;;;19.02;2.78;;;17.90;99.90;;;;;;5057280;28;20036;-70
2023/09/28 07:57:33;;;;;;;15.52;2.72;;;18.00;99.90;;;;;;5055629;28;20032;-72
2023/09/28 07:59:59;;;;;;;15.73;2.97;;;18.00;99.90;;;;;;5056077;28;20040;-69
2023/09/28 08:02:25;;;;;;;8.95;2.15;;;18.10;99.90;;;;;;5051231;28;20052;-69
2023/09/28 08:04:53;;;;;;;16.08;3.20;;;18.10;99.90;;;;;;5050507;28;20040;-69
2023/09/28 08:07:19;;;;;;;14.32;3.08;;;18.10;99.90;;;;;;5049260;28;20412;-70
2023/09/28 08:09:45;;;;;;;17.20;2.75;;;18.20;99.90;;;;;;5052146;28;20611;-72
2023/09/28 08:12:11;;;;;;;12.68;2.47;;;18.20;99.90;;;;;;5056426;28;20048;-72
2023/09/28 08:14:36;;;;;;;12.00;2.08;;;18.30;99.90;;;;;;5047932;28;20041;-70
2023/09/28 08:17:02;;;;;;;11.07;1.60;;;18.30;99.90;;;;;;5049677;28;20051;-70
2023/09/28 08:19:29;;;;;;;14.57;2.38;;;18.30;99.90;;;;;;5054892;28;20037;-70
2023/09/28 08:21:55;;;;;;;14.18;2.45;;;18.40;99.90;;;;;;5035571;28;20071;-70
2023/09/28 08:24:20;;;;;;;14.68;2.45;;;18.40;99.90;;;;;;5058410;28;20489;-70
2023/09/28 08:26:47;;;;;;;13.95;2.50;;;18.50;99.90;;;;;;5054638;28;20045;-70
2023/09/28 08:29:12;;;;;;;14.15;2.75;;;18.60;99.90;;;;;;5051090;28;20047;-70
2023/09/28 08:31:39;;;;;;;18.58;3.08;;;18.60;99.90;;;;;;5051249;28;20407;-73
2023/09/28 08:34:05;;;;;;;21.58;2.60;;;18.70;99.90;;;;;;5055699;28;20056;-72
2023/09/28 08:36:32;;;;;;;17.65;2.40;;;18.70;99.90;;;;;;5054305;28;20047;-74
2023/09/28 08:38:58;;;;;;;;;;;18.80;99.90;;;;;;5057953;28;20189;-70
2023/09/28 08:41:44;;;;;;;10.83;2.77;;;18.80;99.90;;;;;;5036140;28;19999;-70
2023/09/28 08:44:11;;;;;;;14.32;2.30;;;18.80;99.90;;;;;;5050397;28;20324;-70
2023/09/28 08:46:38;;;;;;;12.95;2.53;;;18.80;99.90;;;;;;5055658;28;20370;-70
2023/09/28 08:49:08;;;;;;;12.05;2.50;;;18.90;99.90;;;;;;5057705;28;20060;-70
2023/09/28 08:51:40;;;;;;;12.65;2.50;;;18.90;99.90;;;;;;5059644;28;20041;-73
2023/09/28 08:54:06;;;;;;;19.58;3.03;;;18.90;99.90;;;;;;5054395;28;20051;-70
2023/09/28 08:56:38;;;;;;;15.63;2.15;;;18.90;99.90;;;;;;5064436;28;20036;-72
2023/09/28 08:59:05;;;;;;;11.55;2.38;;;18.90;99.90;;;;;;5054864;28;20137;-71
2023/09/28 09:01:32;;;;;;;15.48;2.88;;;18.90;99.90;;;;;;5051906;28;20068;-73
2023/09/28 09:03:58;;;;;;;14.75;2.70;;;18.90;99.90;;;;;;5044865;28;20040;-70
2023/09/28 09:06:24;;;;;;;;;;;18.80;99.90;;;;;;5056754;28;20196;-69
2023/09/28 09:08:50;;;;;;;13.00;2.67;;;18.80;99.90;;;;;;5052665;28;19916;-70
2023/09/28 09:11:16;;;;;;;18.10;2.67;;;18.80;99.90;;;;;;5062207;28;20137;-67
2023/09/28 09:13:49;;;;;;;;;;;18.80;99.90;;;;;;5057158;28;20041;-67
2023/09/28 09:16:15;;;;;;;11.05;3.53;;;18.80;99.90;;;;;;5057620;28;19916;-68
2023/09/28 09:18:42;;;;;;;16.27;3.95;;;18.80;99.90;;;;;;5060559;28;20042;-67
2023/09/28 09:21:08;;;;;;;13.70;2.70;;;18.70;99.90;;;;;;5059952;28;20481;-67
2023/09/28 09:23:35;;;;;;;12.57;2.35;;;18.80;99.90;;;;;;5057135;28;20051;-68
2023/09/28 09:26:02;;;;;;;12.25;2.35;;;18.80;99.90;;;;;;5056147;28;20052;-67
2023/09/28 09:28:37;;;;;;;13.18;2.50;;;18.80;99.90;;;;;;5060602;28;20048;-67
2023/09/28 09:31:03;;;;;;;15.70;3.10;;;18.80;99.90;;;;;;5047443;28;20048;-67
2023/09/28 09:33:29;;;;;;;20.38;3.10;;;18.80;99.90;;;;;;5050057;28;20387;-67
2023/09/28 09:35:55;;;;;;;14.40;2.88;;;18.80;99.90;;;;;;5057119;28;20055;-67
2023/09/28 09:38:27;;;;;;;16.52;2.80;;;18.90;99.90;;;;;;5054847;28;20140;-68
2023/09/28 09:41:04;;;;;;;13.57;2.53;;;18.90;99.90;;;;;;5062057;28;20045;-68
2023/09/28 09:43:35;;;;;;;16.08;2.83;;;18.90;99.90;;;;;;5060058;28;20060;-68
2023/09/28 09:46:09;;;;;;;11.18;2.05;;;18.90;99.90;;;;;;5055576;28;20041;-67
2023/09/28 09:48:38;;;;;;;13.60;2.38;;;19.00;99.90;;;;;;5055202;28;20310;-68
2023/09/28 09:51:07;;;;;;;11.52;2.90;;;18.90;99.90;;;;;;5058217;28;20048;-67
2023/09/28 09:53:34;;;;;;;17.67;3.00;;;19.00;99.90;;;;;;5060665;28;20056;-68
2023/09/28 09:56:04;;;;;;;12.40;2.05;;;19.00;99.90;;;;;;5054062;28;20044;-67
2023/09/28 09:58:37;;;;;;;13.27;2.13;;;19.00;99.90;;;;;;5035203;28;21597;-68
2023/09/28 10:01:12;;;;;;;18.38;2.83;;;19.10;99.90;;;;;;5058177;28;20036;-67
2023/09/28 10:03:51;;;;;;;17.23;2.65;;;19.00;99.90;;;;;;5058787;28;20475;-68
2023/09/28 10:06:19;;;;;;;13.27;2.80;;;19.00;99.90;;;;;;5034183;28;20612;-68
2023/09/28 10:08:46;;;;;;;12.02;2.35;;;19.00;99.90;;;;;;5051061;28;20426;-67
2023/09/28 10:11:13;;;;;;;17.15;2.90;;;19.00;99.90;;;;;;5055047;28;20405;-68
2023/09/28 10:13:39;;;;;;;14.68;2.47;;;19.00;99.90;;;;;;5060878;28;20485;-68
2023/09/28 10:16:08;;;;;;;14.43;3.35;;;19.00;99.90;;;;;;5061088;28;20048;-67
2023/09/28 10:18:36;;;;;;;15.70;2.40;;;19.00;99.90;;;;;;5059007;28;20556;-68
2023/09/28 10:21:02;;;;;;;16.20;2.88;;;19.00;99.90;;;;;;5058100;28;20048;-68
2023/09/28 10:23:28;;;;;;;;;;;18.90;99.90;;;;;;5057295;28;20048;-67
2023/09/28 10:25:58;;;;;;;19.73;2.50;;;19.00;99.90;;;;;;5058346;28;19931;-67
2023/09/28 10:28:25;;;;;;;14.60;2.30;;;19.00;99.90;;;;;;5059894;28;20406;-67
2023/09/28 10:31:13;;;;;;;12.35;2.53;;;19.00;99.90;;;;;;5053753;28;20047;-68
2023/09/28 10:34:02;;;;;;;13.65;2.97;;;19.00;99.90;;;;;;5057746;28;20041;-68
2023/09/28 10:36:28;;;;;;;16.60;2.78;;;19.00;99.90;;;;;;5052821;28;20166;-67
2023/09/28 10:39:15;;;;;;;13.05;2.65;;;19.00;99.90;;;;;;5055430;28;20048;-68
2023/09/28 10:42:08;;;;;;;14.95;2.30;;;19.10;99.90;;;;;;5051345;28;20044;-67
2023/09/28 10:44:34;;;;;;;12.25;2.13;;;19.10;99.90;;;;;;5057594;28;20094;-68
2023/09/28 10:46:59;;;;;;;10.98;1.83;;;19.10;99.90;;;;;;5053155;28;20044;-68
2023/09/28 10:49:27;;;;;;;11.68;2.70;;;19.10;99.90;;;;;;5056456;28;20110;-68
2023/09/28 10:51:55;;;;;;;11.48;2.30;;;19.00;99.90;;;;;;5054224;28;20049;-67
2023/09/28 10:54:24;;;;;;;14.82;3.03;;;19.00;99.90;;;;;;5054382;28;20449;-68
2023/09/28 10:56:51;;;;;;;17.85;2.40;;;18.90;99.90;;;;;;5055913;28;20048;-68
2023/09/28 10:59:21;;;;;;;10.30;2.40;;;18.90;99.90;;;;;;5057543;28;20044;-68
2023/09/28 11:01:48;;;;;;;9.27;1.88;;;18.90;99.90;;;;;;5055765;28;20044;-68
2023/09/28 11:04:15;;;;;;;13.38;2.75;;;18.90;99.90;;;;;;5058339;28;20048;-68
2023/09/28 11:06:43;;;;;;;16.77;2.30;;;18.90;99.90;;;;;;5057243;28;20037;-68
2023/09/28 11:09:09;;;;;;;12.70;2.63;;;18.90;99.90;;;;;;5057852;28;20512;-69
2023/09/28 11:11:37;;;;;;;8.90;2.42;;;18.90;99.90;;;;;;5038876;28;20048;-69
2023/09/28 11:14:05;;;;;;;11.18;2.60;;;18.90;99.90;;;;;;5060459;28;20033;-68
2023/09/28 11:16:33;;;;;;;20.60;2.97;;;18.90;99.90;;;;;;5032749;28;20056;-68
2023/09/28 11:19:00;;;;;;;10.88;2.83;;;19.00;99.90;;;;;;5054848;28;20129;-68
2023/09/28 11:21:29;;;;;;;13.50;2.90;;;19.00;99.90;;;;;;5051211;28;20163;-68
2023/09/28 11:23:55;;;;;;;14.13;3.28;;;19.00;99.90;;;;;;5055096;28;20118;-68
2023/09/28 11:26:22;;;;;;;10.45;2.20;;;19.00;99.90;;;;;;5051753;28;20553;-68
2023/09/28 11:28:50;;;;;;;22.30;3.33;;;19.10;99.90;;;;;;5054253;28;20052;-68
2023/09/28 11:31:16;;;;;;;15.73;3.03;;;19.10;99.90;;;;;;5049994;28;20040;-68
2023/09/28 11:33:44;;;;;;;11.85;3.28;;;19.20;99.90;;;;;;5052616;28;20078;-68
2023/09/28 11:36:17;;;;;;;8.63;2.88;;;19.20;99.90;;;;;;5056248;28;20048;-68
2023/09/28 11:38:43;;;;;;;18.27;2.70;;;19.10;99.90;;;;;;5041823;28;20049;-68
2023/09/28 11:41:09;;;;;;;14.43;2.97;;;19.20;99.90;;;;;;5056339;28;20060;-69
2023/09/28 11:43:49;;;;;;;14.93;3.22;;;19.20;99.90;;;;;;5054001;28;20057;-68
2023/09/28 11:46:28;;;;;;;9.23;2.35;;;19.20;99.90;;;;;;5055717;28;20041;-68
2023/09/28 11:49:09;;;;;;;10.50;2.25;;;19.30;99.90;;;;;;5057435;28;20058;-69
2023/09/28 11:51:35;;;;;;;12.80;2.72;;;19.30;99.90;;;;;;5067793;28;20055;-68
2023/09/28 11:54:21;;;;;;;12.85;2.38;;;19.30;99.90;;;;;;5056049;28;20065;-68
2023/09/28 11:56:48;;;;;;;20.58;3.03;;;19.20;99.90;;;;;;5049725;28;20131;-68
2023/09/28 11:59:15;;;;;;;15.13;2.65;;;19.20;99.90;;;;;;5052496;28;20048;-69
2023/09/28 12:01:42;;;;;;;16.08;3.08;;;19.20;99.90;;;;;;5056514;28;20120;-71
2023/09/28 12:04:09;;;;;;;16.50;2.53;;;19.20;99.90;;;;;;5033246;28;20560;-71
2023/09/28 12:06:37;;;;;;;11.40;2.53;;;19.30;99.90;;;;;;5037989;28;20181;-71
2023/09/28 12:09:05;;;;;;;9.10;2.17;;;19.30;99.90;;;;;;5049335;28;20355;-71
2023/09/28 12:11:32;;;;;;;13.85;2.90;;;19.30;99.90;;;;;;5050113;28;20048;-71
2023/09/28 12:13:59;;;;;;;20.40;3.03;;;19.30;99.90;;;;;;5052282;28;20049;-71
2023/09/28 12:16:26;;;;;;;11.57;2.25;;;19.30;99.90;;;;;;5056735;28;20041;-71
2023/09/28 12:18:51;;;;;;;13.48;2.15;;;19.30;99.90;;;;;;5051094;28;20045;-71
2023/09/28 12:21:17;;;;;;;14.80;3.05;;;19.30;99.90;;;;;;5060138;28;20040;-71
2023/09/28 12:23:43;;;;;;;15.57;2.70;;;19.30;99.90;;;;;;5059939;28;20457;-71
2023/09/28 12:26:10;;;;;;;13.88;2.05;;;19.20;99.90;;;;;;5055454;28;20465;-71
2023/09/28 12:28:37;;;;;;;17.35;2.97;;;19.20;99.90;;;;;;5051436;28;20037;-71
2023/09/28 12:31:04;;;;;;;17.70;2.88;;;19.20;99.90;;;;;;5058324;28;20413;-70
2023/09/28 12:33:30;;;;;;;11.65;2.75;;;19.20;99.90;;;;;;5056665;28;20052;-71
2023/09/28 12:35:57;;;;;;;11.77;2.20;;;19.20;99.90;;;;;;5063185;28;20036;-71
2023/09/28 12:38:23;;;;;;;10.13;2.15;;;19.20;99.90;;;;;;5058572;28;20059;-71
2023/09/28 12:40:49;;;;;;;12.18;1.80;;;19.20;99.90;;;;;;5044726;28;20444;-71
2023/09/28 12:43:16;;;;;;;16.05;2.78;;;19.20;99.90;;;;;;5046221;28;20067;-71
2023/09/28 12:45:43;;;;;;;12.50;2.80;;;19.20;99.90;;;;;;5061653;28;20155;-71
2023/09/28 12:48:17;;;;;;;18.45;2.63;;;19.20;99.90;;;;;;5057417;28;20056;-71